SHT6A EGLL-EGPF
Flight info
| Callsign | SHT6A |
|---|---|
| Flight time | N/A |
| Altitude | 32000 |
| Route | ULTIB T420 TNT UN57 POL UN601 RIBEL DCT ASLIB |
| Aircraft | A21N/M-SDE2E3FGHIRWXY/LB1 |
Departure
| Time | 2026-05-07 19:31 |
|---|---|
| Airport | London Heathrow Airport (EGLL) |
Arrival
| Time | N/A |
|---|---|
| Airport | Glasgow Airport (EGPF) |
| Time | Latitude | Longitude | Altitude | Speed | Heading |
|---|---|---|---|---|---|
| 2026-05-07 19:05 | 51.46923 | -0.48717 | 90 ft | 0 kts | 360° |
| 2026-05-07 19:19 | 51.46915 | -0.48717 | 92 ft | 3 kts | 2° |
| 2026-05-07 19:19 | 51.46899 | -0.48718 | 92 ft | 3 kts | 14° |
| 2026-05-07 19:20 | 51.46884 | -0.48730 | 92 ft | 3 kts | 56° |
| 2026-05-07 19:20 | 51.46878 | -0.48757 | 90 ft | 3 kts | 86° |
| 2026-05-07 19:20 | 51.46877 | -0.48777 | 90 ft | 1 kts | 89° |
| 2026-05-07 19:20 | 51.46877 | -0.48781 | 90 ft | 0 kts | 89° |
| 2026-05-07 19:22 | 51.46877 | -0.48777 | 90 ft | 2 kts | 89° |
| 2026-05-07 19:22 | 51.46877 | -0.48770 | 90 ft | 0 kts | 91° |
| 2026-05-07 19:22 | 51.46873 | -0.48758 | 93 ft | 5 kts | 124° |
| 2026-05-07 19:23 | 51.46817 | -0.48748 | 90 ft | 4 kts | 185° |
| 2026-05-07 19:23 | 51.46800 | -0.48750 | 90 ft | 0 kts | 182° |
| 2026-05-07 19:24 | 51.46781 | -0.48751 | 91 ft | 5 kts | 180° |
| 2026-05-07 19:25 | 51.46735 | -0.48751 | 91 ft | 9 kts | 179° |
| 2026-05-07 19:25 | 51.46667 | -0.48751 | 91 ft | 10 kts | 184° |
| 2026-05-07 19:25 | 51.46602 | -0.48767 | 92 ft | 4 kts | 198° |
| 2026-05-07 19:25 | 51.46596 | -0.48771 | 92 ft | 1 kts | 198° |
| 2026-05-07 19:27 | 51.46595 | -0.48772 | 91 ft | 0 kts | 198° |
| 2026-05-07 19:28 | 51.46594 | -0.48772 | 91 ft | 0 kts | 198° |
| 2026-05-07 19:29 | 51.46586 | -0.48776 | 92 ft | 7 kts | 197° |
| 2026-05-07 19:30 | 51.46498 | -0.48753 | 93 ft | 11 kts | 127° |
| 2026-05-07 19:30 | 51.46480 | -0.48701 | 93 ft | 3 kts | 102° |
| 2026-05-07 19:30 | 51.46478 | -0.48647 | 92 ft | 3 kts | 88° |
| 2026-05-07 19:30 | 51.46471 | -0.48249 | 96 ft | 73 kts | 90° |
| 2026-05-07 19:31 | 51.46480 | -0.47535 | 86 ft | 118 kts | 90° |
| 2026-05-07 19:31 | 51.46494 | -0.45941 | 192 ft | 158 kts | 82° |
| 2026-05-07 19:31 | 51.46608 | -0.44153 | 694 ft | 167 kts | 78° |
| 2026-05-07 19:31 | 51.46898 | -0.42278 | 1283 ft | 178 kts | 65° |
| 2026-05-07 19:32 | 51.47580 | -0.40561 | 1888 ft | 190 kts | 40° |
| 2026-05-07 19:32 | 51.48655 | -0.39199 | 2534 ft | 205 kts | 32° |
| 2026-05-07 19:32 | 51.49870 | -0.37908 | 3391 ft | 213 kts | 31° |
| 2026-05-07 19:32 | 51.51013 | -0.36246 | 4042 ft | 233 kts | 58° |
| 2026-05-07 19:33 | 51.51709 | -0.33798 | 4876 ft | 246 kts | 67° |
| 2026-05-07 19:33 | 51.52485 | -0.31298 | 5876 ft | 253 kts | 61° |
| 2026-05-07 19:33 | 51.53080 | -0.28622 | 6837 ft | 259 kts | 77° |
| 2026-05-07 19:33 | 51.53504 | -0.25772 | 7765 ft | 266 kts | 76° |
| 2026-05-07 19:34 | 51.54000 | -0.22860 | 8708 ft | 273 kts | 74° |
| 2026-05-07 19:34 | 51.54174 | -0.21923 | 9028 ft | 275 kts | 73° |
| 2026-05-07 19:34 | 51.55871 | -0.17427 | 10601 ft | 284 kts | 33° |
| 2026-05-07 19:34 | 51.57711 | -0.16307 | 11507 ft | 286 kts | 6° |
| 2026-05-07 19:35 | 51.59727 | -0.16359 | 12418 ft | 289 kts | 345° |
| 2026-05-07 19:35 | 51.61521 | -0.17671 | 13255 ft | 291 kts | 319° |
| 2026-05-07 19:35 | 51.62748 | -0.20224 | 13914 ft | 291 kts | 289° |
| 2026-05-07 19:35 | 51.63128 | -0.22302 | 14353 ft | 298 kts | 282° |
| 2026-05-07 19:36 | 51.67836 | -0.31543 | 16095 ft | 356 kts | 329° |
| 2026-05-07 19:36 | 51.70135 | -0.33144 | 16949 ft | 362 kts | 336° |
| 2026-05-07 19:37 | 51.72483 | -0.34755 | 17546 ft | 372 kts | 333° |
| 2026-05-07 19:37 | 51.74818 | -0.36648 | 18280 ft | 377 kts | 330° |
| 2026-05-07 19:37 | 51.77118 | -0.38713 | 18961 ft | 379 kts | 328° |
| 2026-05-07 19:37 | 51.79405 | -0.40868 | 19626 ft | 383 kts | 327° |
| 2026-05-07 19:38 | 51.81705 | -0.43079 | 20304 ft | 386 kts | 327° |
| 2026-05-07 19:38 | 51.84022 | -0.45324 | 20969 ft | 389 kts | 327° |
| 2026-05-07 19:38 | 51.86354 | -0.47587 | 21625 ft | 393 kts | 327° |
| 2026-05-07 19:38 | 51.88710 | -0.49879 | 22282 ft | 396 kts | 326° |
| 2026-05-07 19:39 | 51.91081 | -0.52189 | 22935 ft | 399 kts | 326° |
| 2026-05-07 19:39 | 51.93449 | -0.54491 | 23574 ft | 403 kts | 326° |
| 2026-05-07 19:39 | 51.95860 | -0.56844 | 24122 ft | 406 kts | 326° |
| 2026-05-07 19:39 | 51.98289 | -0.59218 | 24671 ft | 409 kts | 326° |
| 2026-05-07 19:40 | 52.00737 | -0.61615 | 25209 ft | 412 kts | 326° |
| 2026-05-07 19:40 | 52.03203 | -0.64032 | 25755 ft | 415 kts | 326° |
| 2026-05-07 19:40 | 52.05687 | -0.66467 | 26303 ft | 418 kts | 326° |
| 2026-05-07 19:40 | 52.08181 | -0.68915 | 26842 ft | 420 kts | 326° |
| 2026-05-07 19:41 | 52.10688 | -0.71378 | 27354 ft | 423 kts | 326° |
| 2026-05-07 19:41 | 52.13209 | -0.73864 | 27858 ft | 425 kts | 326° |
| 2026-05-07 19:41 | 52.15743 | -0.76365 | 28337 ft | 428 kts | 326° |
| 2026-05-07 19:41 | 52.18301 | -0.78888 | 28796 ft | 431 kts | 326° |
| 2026-05-07 19:42 | 52.20870 | -0.81429 | 29265 ft | 433 kts | 326° |
| 2026-05-07 19:42 | 52.23457 | -0.83996 | 29728 ft | 436 kts | 326° |
| 2026-05-07 19:42 | 52.26068 | -0.86584 | 30170 ft | 439 kts | 326° |
| 2026-05-07 19:42 | 52.28686 | -0.89181 | 30549 ft | 441 kts | 326° |
| 2026-05-07 19:43 | 52.31322 | -0.91799 | 30888 ft | 444 kts | 326° |
| 2026-05-07 19:43 | 52.33932 | -0.94399 | 31228 ft | 447 kts | 326° |
| 2026-05-07 19:43 | 52.36603 | -0.97064 | 31550 ft | 449 kts | 326° |
| 2026-05-07 19:43 | 52.39276 | -0.99739 | 31888 ft | 452 kts | 326° |
| 2026-05-07 19:44 | 52.41969 | -1.02432 | 32073 ft | 454 kts | 326° |
| 2026-05-07 19:44 | 52.44668 | -1.05135 | 32067 ft | 455 kts | 326° |
| 2026-05-07 19:44 | 52.50069 | -1.10555 | 32029 ft | 454 kts | 326° |
| 2026-05-07 19:45 | 52.55464 | -1.15981 | 32009 ft | 455 kts | 326° |
| 2026-05-07 19:45 | 52.60875 | -1.21443 | 31993 ft | 456 kts | 326° |
| 2026-05-07 19:46 | 52.66279 | -1.26909 | 32001 ft | 455 kts | 326° |
| 2026-05-07 19:46 | 52.71679 | -1.32391 | 31990 ft | 455 kts | 326° |
| 2026-05-07 19:47 | 52.77036 | -1.37857 | 32056 ft | 457 kts | 326° |
| 2026-05-07 19:47 | 52.82465 | -1.43408 | 32043 ft | 460 kts | 326° |
| 2026-05-07 19:48 | 52.87907 | -1.48987 | 32051 ft | 459 kts | 326° |
| 2026-05-07 19:48 | 52.93343 | -1.54565 | 32053 ft | 458 kts | 326° |
| 2026-05-07 19:49 | 52.98763 | -1.60151 | 32043 ft | 458 kts | 326° |
| 2026-05-07 19:49 | 53.04157 | -1.65733 | 32042 ft | 461 kts | 326° |
| 2026-05-07 19:50 | 53.09911 | -1.70455 | 32059 ft | 466 kts | 340° |
| 2026-05-07 19:50 | 53.16089 | -1.73745 | 32042 ft | 465 kts | 339° |
| 2026-05-07 19:51 | 53.22183 | -1.77415 | 32045 ft | 465 kts | 337° |
| 2026-05-07 19:51 | 53.28259 | -1.81204 | 32042 ft | 468 kts | 338° |
| 2026-05-07 19:52 | 53.34361 | -1.85028 | 32044 ft | 468 kts | 338° |
| 2026-05-07 19:52 | 53.40468 | -1.88860 | 32051 ft | 468 kts | 338° |
| 2026-05-07 19:53 | 53.46565 | -1.92705 | 32040 ft | 468 kts | 338° |
| 2026-05-07 19:53 | 53.52633 | -1.96525 | 32038 ft | 468 kts | 338° |